sensor_id;sensor_type;location;lat;lon;timestamp;P1;durP1;ratioP1;P2;durP2;ratioP2
55800;SDS011;41730;51.960;20.158;2024-03-06T00:00:03;33.80;;;20.30;;
55800;SDS011;41730;51.960;20.158;2024-03-06T00:02:38;39.00;;;20.90;;
55800;SDS011;41730;51.960;20.158;2024-03-06T00:05:10;36.40;;;21.00;;
55800;SDS011;41730;51.960;20.158;2024-03-06T00:07:43;38.90;;;22.60;;
55800;SDS011;41730;51.960;20.158;2024-03-06T00:10:15;41.00;;;23.30;;
55800;SDS011;41730;51.960;20.158;2024-03-06T00:12:47;37.00;;;21.40;;
55800;SDS011;41730;51.960;20.158;2024-03-06T00:15:19;35.60;;;20.40;;
55800;SDS011;41730;51.960;20.158;2024-03-06T00:17:51;40.20;;;22.70;;
55800;SDS011;41730;51.960;20.158;2024-03-06T00:20:23;37.50;;;21.90;;
55800;SDS011;41730;51.960;20.158;2024-03-06T00:22:55;36.00;;;20.80;;
55800;SDS011;41730;51.960;20.158;2024-03-06T00:25:27;34.60;;;20.80;;
55800;SDS011;41730;51.960;20.158;2024-03-06T00:27:59;35.70;;;20.10;;
55800;SDS011;41730;51.960;20.158;2024-03-06T00:30:30;33.90;;;19.80;;
55800;SDS011;41730;51.960;20.158;2024-03-06T00:33:03;36.30;;;20.10;;
55800;SDS011;41730;51.960;20.158;2024-03-06T00:35:35;33.80;;;19.90;;
55800;SDS011;41730;51.960;20.158;2024-03-06T00:38:07;35.30;;;20.30;;
55800;SDS011;41730;51.960;20.158;2024-03-06T00:40:38;34.30;;;20.60;;
55800;SDS011;41730;51.960;20.158;2024-03-06T00:43:11;32.00;;;18.90;;
55800;SDS011;41730;51.960;20.158;2024-03-06T00:45:43;31.20;;;18.30;;
55800;SDS011;41730;51.960;20.158;2024-03-06T00:48:14;33.30;;;19.90;;
55800;SDS011;41730;51.960;20.158;2024-03-06T00:50:48;34.00;;;19.70;;
55800;SDS011;41730;51.960;20.158;2024-03-06T00:53:20;33.70;;;18.40;;
55800;SDS011;41730;51.960;20.158;2024-03-06T00:55:52;31.80;;;19.00;;
55800;SDS011;41730;51.960;20.158;2024-03-06T00:58:24;35.30;;;21.20;;
55800;SDS011;41730;51.960;20.158;2024-03-06T01:00:56;33.90;;;18.80;;
55800;SDS011;41730;51.960;20.158;2024-03-06T01:03:28;37.20;;;20.60;;
55800;SDS011;41730;51.960;20.158;2024-03-06T01:06:00;39.30;;;20.60;;
55800;SDS011;41730;51.960;20.158;2024-03-06T01:08:31;37.10;;;21.00;;
55800;SDS011;41730;51.960;20.158;2024-03-06T01:11:04;36.00;;;19.70;;
55800;SDS011;41730;51.960;20.158;2024-03-06T01:13:36;35.50;;;20.00;;
55800;SDS011;41730;51.960;20.158;2024-03-06T01:16:08;36.10;;;21.10;;
55800;SDS011;41730;51.960;20.158;2024-03-06T01:18:40;42.20;;;21.50;;
55800;SDS011;41730;51.960;20.158;2024-03-06T01:21:12;35.60;;;19.30;;
55800;SDS011;41730;51.960;20.158;2024-03-06T01:23:43;39.80;;;21.40;;
55800;SDS011;41730;51.960;20.158;2024-03-06T01:26:15;40.90;;;22.60;;
55800;SDS011;41730;51.960;20.158;2024-03-06T01:28:47;41.50;;;22.20;;
55800;SDS011;41730;51.960;20.158;2024-03-06T01:31:18;38.90;;;20.80;;
55800;SDS011;41730;51.960;20.158;2024-03-06T01:33:49;40.80;;;23.30;;
55800;SDS011;41730;51.960;20.158;2024-03-06T01:36:22;40.10;;;22.30;;
55800;SDS011;41730;51.960;20.158;2024-03-06T01:38:54;44.40;;;22.90;;
55800;SDS011;41730;51.960;20.158;2024-03-06T01:41:25;41.40;;;22.30;;
55800;SDS011;41730;51.960;20.158;2024-03-06T01:43:57;44.60;;;22.80;;
55800;SDS011;41730;51.960;20.158;2024-03-06T01:46:28;42.40;;;22.60;;
55800;SDS011;41730;51.960;20.158;2024-03-06T01:49:00;38.50;;;21.80;;
55800;SDS011;41730;51.960;20.158;2024-03-06T01:51:32;45.20;;;22.90;;
55800;SDS011;41730;51.960;20.158;2024-03-06T01:54:04;43.50;;;23.20;;
55800;SDS011;41730;51.960;20.158;2024-03-06T01:56:36;37.40;;;20.80;;
55800;SDS011;41730;51.960;20.158;2024-03-06T01:59:14;38.50;;;20.80;;
55800;SDS011;41730;51.960;20.158;2024-03-06T02:02:02;39.90;;;22.30;;
55800;SDS011;41730;51.960;20.158;2024-03-06T02:04:36;41.90;;;22.60;;
55800;SDS011;41730;51.960;20.158;2024-03-06T02:07:09;36.40;;;21.10;;
55800;SDS011;41730;51.960;20.158;2024-03-06T02:09:42;38.60;;;20.80;;
55800;SDS011;41730;51.960;20.158;2024-03-06T02:12:16;38.50;;;22.80;;
55800;SDS011;41730;51.960;20.158;2024-03-06T02:14:48;37.60;;;21.70;;
55800;SDS011;41730;51.960;20.158;2024-03-06T02:17:19;40.80;;;20.20;;
55800;SDS011;41730;51.960;20.158;2024-03-06T02:19:54;36.40;;;21.00;;
55800;SDS011;41730;51.960;20.158;2024-03-06T02:22:26;39.60;;;21.70;;
55800;SDS011;41730;51.960;20.158;2024-03-06T02:24:57;38.00;;;20.70;;
55800;SDS011;41730;51.960;20.158;2024-03-06T02:27:29;43.10;;;22.70;;
55800;SDS011;41730;51.960;20.158;2024-03-06T02:30:01;41.10;;;22.20;;
55800;SDS011;41730;51.960;20.158;2024-03-06T02:32:32;41.20;;;20.80;;
55800;SDS011;41730;51.960;20.158;2024-03-06T02:35:05;38.30;;;20.10;;
55800;SDS011;41730;51.960;20.158;2024-03-06T02:37:38;40.00;;;21.30;;
55800;SDS011;41730;51.960;20.158;2024-03-06T02:40:12;41.30;;;22.20;;
55800;SDS011;41730;51.960;20.158;2024-03-06T02:42:43;38.50;;;21.50;;
55800;SDS011;41730;51.960;20.158;2024-03-06T02:45:15;38.50;;;19.80;;
55800;SDS011;41730;51.960;20.158;2024-03-06T02:47:48;39.50;;;21.80;;
55800;SDS011;41730;51.960;20.158;2024-03-06T02:50:20;41.10;;;19.90;;
55800;SDS011;41730;51.960;20.158;2024-03-06T02:52:51;39.60;;;21.80;;
55800;SDS011;41730;51.960;20.158;2024-03-06T02:55:23;42.40;;;20.80;;
55800;SDS011;41730;51.960;20.158;2024-03-06T02:57:55;43.00;;;22.20;;
55800;SDS011;41730;51.960;20.158;2024-03-06T03:00:26;41.80;;;22.40;;
55800;SDS011;41730;51.960;20.158;2024-03-06T03:02:59;43.30;;;22.60;;
55800;SDS011;41730;51.960;20.158;2024-03-06T03:05:31;40.80;;;22.10;;
55800;SDS011;41730;51.960;20.158;2024-03-06T03:08:03;46.30;;;23.80;;
55800;SDS011;41730;51.960;20.158;2024-03-06T03:10:36;43.50;;;22.80;;
55800;SDS011;41730;51.960;20.158;2024-03-06T03:13:08;46.40;;;23.10;;
55800;SDS011;41730;51.960;20.158;2024-03-06T03:15:39;44.60;;;23.40;;
55800;SDS011;41730;51.960;20.158;2024-03-06T03:18:11;42.30;;;21.90;;
55800;SDS011;41730;51.960;20.158;2024-03-06T03:20:43;37.90;;;20.30;;
55800;SDS011;41730;51.960;20.158;2024-03-06T03:23:15;46.60;;;23.90;;
55800;SDS011;41730;51.960;20.158;2024-03-06T03:25:50;42.70;;;22.50;;
55800;SDS011;41730;51.960;20.158;2024-03-06T03:28:22;43.90;;;22.70;;
55800;SDS011;41730;51.960;20.158;2024-03-06T03:30:54;45.30;;;21.90;;
55800;SDS011;41730;51.960;20.158;2024-03-06T03:33:25;40.20;;;21.10;;
55800;SDS011;41730;51.960;20.158;2024-03-06T03:35:57;44.20;;;21.80;;
55800;SDS011;41730;51.960;20.158;2024-03-06T03:38:29;44.10;;;22.80;;
55800;SDS011;41730;51.960;20.158;2024-03-06T03:41:00;48.20;;;22.60;;
55800;SDS011;41730;51.960;20.158;2024-03-06T03:43:32;43.80;;;21.90;;
55800;SDS011;41730;51.960;20.158;2024-03-06T03:46:05;42.90;;;21.10;;
55800;SDS011;41730;51.960;20.158;2024-03-06T03:48:37;43.40;;;21.30;;
55800;SDS011;41730;51.960;20.158;2024-03-06T03:51:08;40.40;;;20.30;;
55800;SDS011;41730;51.960;20.158;2024-03-06T03:53:40;45.20;;;23.00;;
55800;SDS011;41730;51.960;20.158;2024-03-06T03:56:11;47.20;;;23.70;;
55800;SDS011;41730;51.960;20.158;2024-03-06T03:58:43;47.50;;;21.60;;
55800;SDS011;41730;51.960;20.158;2024-03-06T04:01:15;42.50;;;21.00;;
55800;SDS011;41730;51.960;20.158;2024-03-06T04:03:54;43.50;;;20.80;;
55800;SDS011;41730;51.960;20.158;2024-03-06T04:06:37;50.10;;;23.00;;
55800;SDS011;41730;51.960;20.158;2024-03-06T04:09:24;40.40;;;21.30;;
55800;SDS011;41730;51.960;20.158;2024-03-06T04:11:56;44.60;;;20.60;;
55800;SDS011;41730;51.960;20.158;2024-03-06T04:14:27;45.80;;;22.60;;
55800;SDS011;41730;51.960;20.158;2024-03-06T04:16:59;43.90;;;20.80;;
55800;SDS011;41730;51.960;20.158;2024-03-06T04:19:32;37.40;;;20.20;;
55800;SDS011;41730;51.960;20.158;2024-03-06T04:22:03;43.10;;;20.80;;
55800;SDS011;41730;51.960;20.158;2024-03-06T04:24:35;41.90;;;21.60;;
55800;SDS011;41730;51.960;20.158;2024-03-06T04:27:10;43.50;;;21.40;;
55800;SDS011;41730;51.960;20.158;2024-03-06T04:29:42;43.10;;;22.70;;
55800;SDS011;41730;51.960;20.158;2024-03-06T04:32:13;40.80;;;20.30;;
55800;SDS011;41730;51.960;20.158;2024-03-06T04:34:45;42.40;;;22.50;;
55800;SDS011;41730;51.960;20.158;2024-03-06T04:37:17;43.30;;;22.00;;
55800;SDS011;41730;51.960;20.158;2024-03-06T04:39:48;38.00;;;20.10;;
55800;SDS011;41730;51.960;20.158;2024-03-06T04:42:19;42.90;;;22.70;;
55800;SDS011;41730;51.960;20.158;2024-03-06T04:44:51;47.10;;;22.80;;
55800;SDS011;41730;51.960;20.158;2024-03-06T04:47:25;43.70;;;23.10;;
55800;SDS011;41730;51.960;20.158;2024-03-06T04:49:57;45.30;;;22.80;;
55800;SDS011;41730;51.960;20.158;2024-03-06T04:52:29;44.10;;;22.30;;
55800;SDS011;41730;51.960;20.158;2024-03-06T04:55:00;45.40;;;21.90;;
55800;SDS011;41730;51.960;20.158;2024-03-06T04:57:32;45.50;;;21.50;;
55800;SDS011;41730;51.960;20.158;2024-03-06T05:00:07;47.30;;;22.40;;
55800;SDS011;41730;51.960;20.158;2024-03-06T05:02:40;46.40;;;22.80;;
55800;SDS011;41730;51.960;20.158;2024-03-06T05:05:29;47.60;;;24.30;;
55800;SDS011;41730;51.960;20.158;2024-03-06T05:08:18;49.90;;;23.50;;
55800;SDS011;41730;51.960;20.158;2024-03-06T05:11:07;53.60;;;23.50;;
55800;SDS011;41730;51.960;20.158;2024-03-06T05:13:57;51.80;;;23.90;;
55800;SDS011;41730;51.960;20.158;2024-03-06T05:16:46;53.60;;;24.60;;
55800;SDS011;41730;51.960;20.158;2024-03-06T05:19:35;55.20;;;24.20;;
55800;SDS011;41730;51.960;20.158;2024-03-06T05:22:23;50.40;;;23.70;;
55800;SDS011;41730;51.960;20.158;2024-03-06T05:25:12;58.40;;;25.80;;
55800;SDS011;41730;51.960;20.158;2024-03-06T05:28:02;54.90;;;22.90;;
55800;SDS011;41730;51.960;20.158;2024-03-06T05:30:51;58.70;;;25.90;;
55800;SDS011;41730;51.960;20.158;2024-03-06T05:33:40;53.30;;;24.30;;
55800;SDS011;41730;51.960;20.158;2024-03-06T05:36:29;52.10;;;23.80;;
55800;SDS011;41730;51.960;20.158;2024-03-06T05:39:17;55.20;;;25.30;;
55800;SDS011;41730;51.960;20.158;2024-03-06T05:42:06;58.60;;;25.60;;
55800;SDS011;41730;51.960;20.158;2024-03-06T05:44:56;52.60;;;23.80;;
55800;SDS011;41730;51.960;20.158;2024-03-06T05:47:49;53.80;;;23.50;;
55800;SDS011;41730;51.960;20.158;2024-03-06T05:50:39;55.10;;;22.90;;
55800;SDS011;41730;51.960;20.158;2024-03-06T05:53:28;54.20;;;24.30;;
55800;SDS011;41730;51.960;20.158;2024-03-06T05:56:18;58.20;;;25.40;;
55800;SDS011;41730;51.960;20.158;2024-03-06T05:59:07;62.50;;;25.50;;
55800;SDS011;41730;51.960;20.158;2024-03-06T06:01:39;52.70;;;23.10;;
55800;SDS011;41730;51.960;20.158;2024-03-06T06:04:11;63.20;;;26.60;;
55800;SDS011;41730;51.960;20.158;2024-03-06T06:06:43;49.30;;;22.10;;
55800;SDS011;41730;51.960;20.158;2024-03-06T06:09:15;50.50;;;22.30;;
55800;SDS011;41730;51.960;20.158;2024-03-06T06:11:47;47.30;;;21.70;;
55800;SDS011;41730;51.960;20.158;2024-03-06T06:14:19;53.20;;;23.20;;
55800;SDS011;41730;51.960;20.158;2024-03-06T06:16:51;48.00;;;22.60;;
55800;SDS011;41730;51.960;20.158;2024-03-06T06:19:23;46.50;;;22.20;;
55800;SDS011;41730;51.960;20.158;2024-03-06T06:21:54;44.20;;;20.70;;
55800;SDS011;41730;51.960;20.158;2024-03-06T06:24:26;41.20;;;20.30;;
55800;SDS011;41730;51.960;20.158;2024-03-06T06:26:58;41.20;;;20.70;;
55800;SDS011;41730;51.960;20.158;2024-03-06T06:29:30;47.60;;;21.30;;
55800;SDS011;41730;51.960;20.158;2024-03-06T06:32:01;39.70;;;20.20;;
55800;SDS011;41730;51.960;20.158;2024-03-06T06:34:33;41.60;;;20.50;;
55800;SDS011;41730;51.960;20.158;2024-03-06T06:37:05;41.80;;;21.10;;
55800;SDS011;41730;51.960;20.158;2024-03-06T06:39:37;39.00;;;20.80;;
55800;SDS011;41730;51.960;20.158;2024-03-06T06:42:09;43.00;;;20.80;;
55800;SDS011;41730;51.960;20.158;2024-03-06T06:44:41;39.80;;;20.30;;
55800;SDS011;41730;51.960;20.158;2024-03-06T06:47:12;41.60;;;21.50;;
55800;SDS011;41730;51.960;20.158;2024-03-06T06:49:44;44.60;;;22.40;;
55800;SDS011;41730;51.960;20.158;2024-03-06T06:52:16;41.50;;;21.40;;
55800;SDS011;41730;51.960;20.158;2024-03-06T06:54:49;39.80;;;20.00;;
55800;SDS011;41730;51.960;20.158;2024-03-06T06:57:20;40.70;;;20.50;;
55800;SDS011;41730;51.960;20.158;2024-03-06T06:59:52;39.80;;;19.90;;
55800;SDS011;41730;51.960;20.158;2024-03-06T07:02:24;43.40;;;21.70;;
55800;SDS011;41730;51.960;20.158;2024-03-06T07:04:56;47.60;;;23.00;;
55800;SDS011;41730;51.960;20.158;2024-03-06T07:07:27;42.80;;;21.30;;
55800;SDS011;41730;51.960;20.158;2024-03-06T07:09:59;43.10;;;21.50;;
55800;SDS011;41730;51.960;20.158;2024-03-06T07:12:31;44.20;;;23.20;;
55800;SDS011;41730;51.960;20.158;2024-03-06T07:15:05;44.50;;;22.20;;
55800;SDS011;41730;51.960;20.158;2024-03-06T07:17:37;46.80;;;21.90;;
55800;SDS011;41730;51.960;20.158;2024-03-06T07:20:10;48.90;;;24.30;;
55800;SDS011;41730;51.960;20.158;2024-03-06T07:22:43;52.40;;;25.10;;
55800;SDS011;41730;51.960;20.158;2024-03-06T07:25:15;48.60;;;22.50;;
55800;SDS011;41730;51.960;20.158;2024-03-06T07:27:47;53.00;;;26.20;;
55800;SDS011;41730;51.960;20.158;2024-03-06T07:30:20;54.90;;;26.60;;
55800;SDS011;41730;51.960;20.158;2024-03-06T07:32:52;57.60;;;26.50;;
55800;SDS011;41730;51.960;20.158;2024-03-06T07:35:24;52.40;;;26.40;;
55800;SDS011;41730;51.960;20.158;2024-03-06T07:37:56;54.80;;;25.50;;
55800;SDS011;41730;51.960;20.158;2024-03-06T07:40:28;65.40;;;29.70;;
55800;SDS011;41730;51.960;20.158;2024-03-06T07:43:01;52.00;;;23.00;;
55800;SDS011;41730;51.960;20.158;2024-03-06T07:45:34;55.80;;;27.30;;
55800;SDS011;41730;51.960;20.158;2024-03-06T07:48:07;49.60;;;25.90;;
55800;SDS011;41730;51.960;20.158;2024-03-06T07:50:39;58.40;;;26.30;;
55800;SDS011;41730;51.960;20.158;2024-03-06T07:53:10;51.10;;;26.30;;
55800;SDS011;41730;51.960;20.158;2024-03-06T07:55:42;52.80;;;25.80;;
55800;SDS011;41730;51.960;20.158;2024-03-06T07:58:14;53.30;;;26.00;;
55800;SDS011;41730;51.960;20.158;2024-03-06T08:00:46;44.20;;;21.60;;
55800;SDS011;41730;51.960;20.158;2024-03-06T08:03:18;49.50;;;25.00;;
55800;SDS011;41730;51.960;20.158;2024-03-06T08:05:52;52.90;;;26.20;;
55800;SDS011;41730;51.960;20.158;2024-03-06T08:08:24;52.90;;;26.40;;
55800;SDS011;41730;51.960;20.158;2024-03-06T08:10:57;48.30;;;25.30;;
55800;SDS011;41730;51.960;20.158;2024-03-06T08:13:29;49.20;;;26.10;;
55800;SDS011;41730;51.960;20.158;2024-03-06T08:16:00;54.30;;;26.30;;
55800;SDS011;41730;51.960;20.158;2024-03-06T08:18:34;54.70;;;25.70;;
55800;SDS011;41730;51.960;20.158;2024-03-06T08:21:06;57.50;;;26.30;;
55800;SDS011;41730;51.960;20.158;2024-03-06T08:23:38;47.90;;;23.50;;
55800;SDS011;41730;51.960;20.158;2024-03-06T08:26:11;47.60;;;25.00;;
55800;SDS011;41730;51.960;20.158;2024-03-06T08:28:43;52.10;;;25.30;;
55800;SDS011;41730;51.960;20.158;2024-03-06T08:31:15;49.00;;;26.00;;
55800;SDS011;41730;51.960;20.158;2024-03-06T08:33:47;47.40;;;23.50;;
55800;SDS011;41730;51.960;20.158;2024-03-06T08:36:21;51.90;;;26.40;;
55800;SDS011;41730;51.960;20.158;2024-03-06T08:38:54;49.70;;;26.20;;
55800;SDS011;41730;51.960;20.158;2024-03-06T08:41:26;53.30;;;27.30;;
55800;SDS011;41730;51.960;20.158;2024-03-06T08:44:00;47.20;;;24.70;;
55800;SDS011;41730;51.960;20.158;2024-03-06T08:46:33;47.80;;;24.60;;
55800;SDS011;41730;51.960;20.158;2024-03-06T08:49:05;51.70;;;25.80;;
55800;SDS011;41730;51.960;20.158;2024-03-06T08:51:39;50.70;;;24.50;;
55800;SDS011;41730;51.960;20.158;2024-03-06T08:54:11;54.30;;;24.30;;
55800;SDS011;41730;51.960;20.158;2024-03-06T08:56:44;51.60;;;27.00;;
55800;SDS011;41730;51.960;20.158;2024-03-06T08:59:16;49.70;;;25.80;;
55800;SDS011;41730;51.960;20.158;2024-03-06T09:01:48;48.60;;;24.60;;
55800;SDS011;41730;51.960;20.158;2024-03-06T09:04:24;53.00;;;25.70;;
55800;SDS011;41730;51.960;20.158;2024-03-06T09:06:57;49.90;;;25.20;;
55800;SDS011;41730;51.960;20.158;2024-03-06T09:09:32;55.10;;;26.00;;
55800;SDS011;41730;51.960;20.158;2024-03-06T09:12:10;53.00;;;25.00;;
55800;SDS011;41730;51.960;20.158;2024-03-06T09:14:48;48.20;;;25.80;;
55800;SDS011;41730;51.960;20.158;2024-03-06T09:17:21;48.60;;;24.90;;
55800;SDS011;41730;51.960;20.158;2024-03-06T09:19:54;46.10;;;23.60;;
55800;SDS011;41730;51.960;20.158;2024-03-06T09:22:37;46.00;;;23.80;;
55800;SDS011;41730;51.960;20.158;2024-03-06T09:25:10;50.80;;;24.50;;
55800;SDS011;41730;51.960;20.158;2024-03-06T09:27:44;51.90;;;26.90;;
55800;SDS011;41730;51.960;20.158;2024-03-06T09:30:16;54.60;;;25.80;;
55800;SDS011;41730;51.960;20.158;2024-03-06T09:32:48;49.00;;;25.40;;
55800;SDS011;41730;51.960;20.158;2024-03-06T09:35:20;45.50;;;24.20;;
55800;SDS011;41730;51.960;20.158;2024-03-06T09:37:52;49.20;;;24.70;;
55800;SDS011;41730;51.960;20.158;2024-03-06T09:40:26;46.30;;;24.10;;
55800;SDS011;41730;51.960;20.158;2024-03-06T09:42:59;48.50;;;22.80;;
55800;SDS011;41730;51.960;20.158;2024-03-06T09:45:32;44.90;;;24.40;;
55800;SDS011;41730;51.960;20.158;2024-03-06T09:48:08;48.10;;;24.50;;
55800;SDS011;41730;51.960;20.158;2024-03-06T09:50:40;44.20;;;21.70;;
55800;SDS011;41730;51.960;20.158;2024-03-06T09:53:16;44.70;;;22.00;;
55800;SDS011;41730;51.960;20.158;2024-03-06T09:58:22;43.80;;;22.30;;
55800;SDS011;41730;51.960;20.158;2024-03-06T10:01:01;35.90;;;20.50;;
55800;SDS011;41730;51.960;20.158;2024-03-06T10:03:38;39.40;;;20.90;;
55800;SDS011;41730;51.960;20.158;2024-03-06T10:06:14;45.50;;;23.50;;
55800;SDS011;41730;51.960;20.158;2024-03-06T10:08:46;45.00;;;22.30;;
55800;SDS011;41730;51.960;20.158;2024-03-06T10:11:20;41.10;;;21.00;;
55800;SDS011;41730;51.960;20.158;2024-03-06T10:13:54;36.90;;;19.50;;
55800;SDS011;41730;51.960;20.158;2024-03-06T10:16:29;36.30;;;19.40;;
55800;SDS011;41730;51.960;20.158;2024-03-06T10:19:09;35.00;;;18.70;;
55800;SDS011;41730;51.960;20.158;2024-03-06T10:21:48;34.00;;;19.50;;
55800;SDS011;41730;51.960;20.158;2024-03-06T10:24:21;38.20;;;19.80;;
55800;SDS011;41730;51.960;20.158;2024-03-06T10:26:54;33.90;;;18.70;;
55800;SDS011;41730;51.960;20.158;2024-03-06T10:29:29;31.70;;;17.00;;
55800;SDS011;41730;51.960;20.158;2024-03-06T10:32:01;37.00;;;19.10;;
55800;SDS011;41730;51.960;20.158;2024-03-06T10:34:33;33.80;;;18.50;;
55800;SDS011;41730;51.960;20.158;2024-03-06T10:37:10;34.40;;;18.90;;
55800;SDS011;41730;51.960;20.158;2024-03-06T10:39:43;29.70;;;18.20;;
55800;SDS011;41730;51.960;20.158;2024-03-06T10:42:16;28.70;;;17.00;;
55800;SDS011;41730;51.960;20.158;2024-03-06T10:47:22;40.70;;;21.10;;
55800;SDS011;41730;51.960;20.158;2024-03-06T10:49:56;38.40;;;20.30;;
55800;SDS011;41730;51.960;20.158;2024-03-06T10:52:33;32.70;;;18.80;;
55800;SDS011;41730;51.960;20.158;2024-03-06T10:55:06;33.50;;;16.50;;
55800;SDS011;41730;51.960;20.158;2024-03-06T10:57:40;32.60;;;17.50;;
55800;SDS011;41730;51.960;20.158;2024-03-06T11:00:15;33.00;;;17.20;;
55800;SDS011;41730;51.960;20.158;2024-03-06T11:02:48;31.50;;;16.70;;
55800;SDS011;41730;51.960;20.158;2024-03-06T11:05:21;30.60;;;16.10;;
55800;SDS011;41730;51.960;20.158;2024-03-06T11:07:53;30.60;;;17.40;;
55800;SDS011;41730;51.960;20.158;2024-03-06T11:10:34;33.60;;;17.50;;
55800;SDS011;41730;51.960;20.158;2024-03-06T11:13:10;35.00;;;16.90;;
55800;SDS011;41730;51.960;20.158;2024-03-06T11:15:56;29.30;;;15.50;;
55800;SDS011;41730;51.960;20.158;2024-03-06T11:18:43;33.60;;;16.90;;
55800;SDS011;41730;51.960;20.158;2024-03-06T11:21:31;30.00;;;15.70;;
55800;SDS011;41730;51.960;20.158;2024-03-06T11:26:59;29.20;;;15.90;;
55800;SDS011;41730;51.960;20.158;2024-03-06T11:32:56;36.80;;;17.50;;
55800;SDS011;41730;51.960;20.158;2024-03-06T11:35:30;30.10;;;15.30;;
55800;SDS011;41730;51.960;20.158;2024-03-06T11:38:05;36.20;;;19.60;;
55800;SDS011;41730;51.960;20.158;2024-03-06T11:40:44;34.30;;;17.50;;
55800;SDS011;41730;51.960;20.158;2024-03-06T11:43:23;35.10;;;18.70;;
55800;SDS011;41730;51.960;20.158;2024-03-06T11:46:05;33.00;;;17.10;;
55800;SDS011;41730;51.960;20.158;2024-03-06T11:48:39;33.40;;;16.30;;
55800;SDS011;41730;51.960;20.158;2024-03-06T11:51:11;34.30;;;17.00;;
55800;SDS011;41730;51.960;20.158;2024-03-06T11:53:43;26.00;;;14.30;;
55800;SDS011;41730;51.960;20.158;2024-03-06T11:56:16;31.90;;;15.00;;
55800;SDS011;41730;51.960;20.158;2024-03-06T11:58:49;38.50;;;17.50;;
55800;SDS011;41730;51.960;20.158;2024-03-06T12:01:21;36.30;;;16.80;;
55800;SDS011;41730;51.960;20.158;2024-03-06T12:03:53;28.70;;;15.10;;
55800;SDS011;41730;51.960;20.158;2024-03-06T12:06:31;31.40;;;14.70;;
55800;SDS011;41730;51.960;20.158;2024-03-06T12:09:04;35.90;;;16.30;;
55800;SDS011;41730;51.960;20.158;2024-03-06T12:11:39;35.40;;;16.30;;
55800;SDS011;41730;51.960;20.158;2024-03-06T12:14:16;31.50;;;18.20;;
55800;SDS011;41730;51.960;20.158;2024-03-06T12:16:55;35.50;;;17.10;;
55800;SDS011;41730;51.960;20.158;2024-03-06T12:19:28;33.40;;;17.60;;
55800;SDS011;41730;51.960;20.158;2024-03-06T12:22:01;39.90;;;19.30;;
55800;SDS011;41730;51.960;20.158;2024-03-06T12:24:35;38.20;;;19.40;;
55800;SDS011;41730;51.960;20.158;2024-03-06T12:27:07;29.00;;;16.90;;
55800;SDS011;41730;51.960;20.158;2024-03-06T12:29:42;31.40;;;15.70;;
55800;SDS011;41730;51.960;20.158;2024-03-06T12:32:17;30.80;;;16.10;;
55800;SDS011;41730;51.960;20.158;2024-03-06T12:34:59;28.10;;;14.90;;
55800;SDS011;41730;51.960;20.158;2024-03-06T12:37:31;36.70;;;17.40;;
55800;SDS011;41730;51.960;20.158;2024-03-06T12:40:03;29.80;;;13.40;;
55800;SDS011;41730;51.960;20.158;2024-03-06T12:42:41;35.10;;;16.00;;
55800;SDS011;41730;51.960;20.158;2024-03-06T12:45:14;30.20;;;14.70;;
55800;SDS011;41730;51.960;20.158;2024-03-06T12:47:47;26.40;;;12.40;;
55800;SDS011;41730;51.960;20.158;2024-03-06T12:50:19;27.80;;;13.60;;
55800;SDS011;41730;51.960;20.158;2024-03-06T12:52:52;26.90;;;13.20;;
55800;SDS011;41730;51.960;20.158;2024-03-06T12:55:23;26.50;;;11.50;;
55800;SDS011;41730;51.960;20.158;2024-03-06T12:57:55;28.30;;;14.20;;
55800;SDS011;41730;51.960;20.158;2024-03-06T13:00:27;30.20;;;14.20;;
55800;SDS011;41730;51.960;20.158;2024-03-06T13:02:59;29.00;;;15.40;;
55800;SDS011;41730;51.960;20.158;2024-03-06T13:05:32;29.90;;;14.20;;
55800;SDS011;41730;51.960;20.158;2024-03-06T13:08:04;27.30;;;12.90;;
55800;SDS011;41730;51.960;20.158;2024-03-06T13:10:36;25.40;;;13.20;;
55800;SDS011;41730;51.960;20.158;2024-03-06T13:13:08;30.20;;;14.10;;
55800;SDS011;41730;51.960;20.158;2024-03-06T13:15:40;33.70;;;13.60;;
55800;SDS011;41730;51.960;20.158;2024-03-06T13:18:11;28.10;;;13.70;;
55800;SDS011;41730;51.960;20.158;2024-03-06T13:20:44;29.80;;;14.60;;
55800;SDS011;41730;51.960;20.158;2024-03-06T13:23:16;25.20;;;12.70;;
55800;SDS011;41730;51.960;20.158;2024-03-06T13:25:55;27.30;;;13.60;;
55800;SDS011;41730;51.960;20.158;2024-03-06T13:28:29;28.80;;;14.50;;
55800;SDS011;41730;51.960;20.158;2024-03-06T13:31:00;23.00;;;12.20;;
55800;SDS011;41730;51.960;20.158;2024-03-06T13:33:35;27.10;;;14.60;;
55800;SDS011;41730;51.960;20.158;2024-03-06T13:36:07;22.90;;;12.10;;
55800;SDS011;41730;51.960;20.158;2024-03-06T13:38:40;32.30;;;16.00;;
55800;SDS011;41730;51.960;20.158;2024-03-06T13:41:12;30.70;;;14.60;;
55800;SDS011;41730;51.960;20.158;2024-03-06T13:43:44;29.10;;;15.60;;
55800;SDS011;41730;51.960;20.158;2024-03-06T13:46:16;27.50;;;15.50;;
55800;SDS011;41730;51.960;20.158;2024-03-06T13:48:48;26.80;;;14.70;;
55800;SDS011;41730;51.960;20.158;2024-03-06T13:51:20;33.10;;;14.40;;
55800;SDS011;41730;51.960;20.158;2024-03-06T13:53:53;29.60;;;15.40;;
55800;SDS011;41730;51.960;20.158;2024-03-06T13:56:25;29.30;;;14.90;;
55800;SDS011;41730;51.960;20.158;2024-03-06T13:58:58;31.20;;;17.00;;
55800;SDS011;41730;51.960;20.158;2024-03-06T14:01:30;32.70;;;15.60;;
55800;SDS011;41730;51.960;20.158;2024-03-06T14:04:02;29.90;;;16.20;;
55800;SDS011;41730;51.960;20.158;2024-03-06T14:06:34;31.10;;;16.10;;
55800;SDS011;41730;51.960;20.158;2024-03-06T14:09:06;25.30;;;13.30;;
55800;SDS011;41730;51.960;20.158;2024-03-06T14:11:38;30.50;;;14.60;;
55800;SDS011;41730;51.960;20.158;2024-03-06T14:14:10;28.40;;;14.00;;
55800;SDS011;41730;51.960;20.158;2024-03-06T14:16:42;35.90;;;15.70;;
55800;SDS011;41730;51.960;20.158;2024-03-06T14:19:16;29.50;;;14.90;;
55800;SDS011;41730;51.960;20.158;2024-03-06T14:21:51;26.60;;;14.80;;
55800;SDS011;41730;51.960;20.158;2024-03-06T14:24:25;23.70;;;12.60;;
55800;SDS011;41730;51.960;20.158;2024-03-06T14:26:58;28.80;;;14.20;;
55800;SDS011;41730;51.960;20.158;2024-03-06T14:29:29;29.50;;;14.70;;
55800;SDS011;41730;51.960;20.158;2024-03-06T14:32:02;24.40;;;13.30;;
55800;SDS011;41730;51.960;20.158;2024-03-06T14:34:35;23.80;;;12.60;;
55800;SDS011;41730;51.960;20.158;2024-03-06T14:37:07;27.80;;;13.80;;
55800;SDS011;41730;51.960;20.158;2024-03-06T14:39:39;27.00;;;14.70;;
55800;SDS011;41730;51.960;20.158;2024-03-06T14:42:11;27.00;;;13.70;;
55800;SDS011;41730;51.960;20.158;2024-03-06T14:44:44;26.20;;;13.20;;
55800;SDS011;41730;51.960;20.158;2024-03-06T14:47:27;25.20;;;11.80;;
55800;SDS011;41730;51.960;20.158;2024-03-06T14:49:59;25.40;;;13.40;;
55800;SDS011;41730;51.960;20.158;2024-03-06T14:52:31;24.60;;;11.90;;
55800;SDS011;41730;51.960;20.158;2024-03-06T14:55:03;19.80;;;11.50;;
55800;SDS011;41730;51.960;20.158;2024-03-06T14:57:37;21.90;;;11.60;;